Pagrindinis puslapis
METAR-TAF:

METAR-TAF

Oro uostai :

Savoonga, Aliaska, Jungtinės Amerikos Valstijos

platuma: 63-41N, ilguma: 170-30W, Aukštis: 16 m

Dabartinis oras

Ataskaita buvo paskelbta 20 minutes, ne 10:56 UTC
Vėjas 18 kt iš Pietų/Pietvakarių
Temperatūra -2°C
Drėgmė 86%
Slėgis 1010 hPa
Matomumas: 12.9 km
Apsiniaukę ne aukštis 5500 ft
nežinomas

METAR: PASA 311056Z AUTO 21018KT 8SM UP OVC055 M02/M04 A2982 RMK AO2 SNB0959E08B46E55 SLP099 P0000 T10221039 FZRANO

Laikas: 03:16 (11:16 UTC)


TAF: trūkstamas

Orai ataskaitas ir orų prognozės (METAR, TAF).

turimą stotys yra geltonos ir raudonos taškus žemėlapyje.

Perkelti pele per norėdami pamatyti stoties vardą.

Tada spustelėkite, norėdami matyti oro stebėjimo ir prognozės.

Norėdami pakeisti žemėlapį: spustelėkite ant žalios mygtukų su juodo kryžiaus žemyn,; žalią mygtuką su brūkšneliu, jei norite nutolinti; arba žalių rodyklių gretimoms žemėlapius.


METAR-TAF: